Aérodrome :
LOGIN :

S'inscrire | Disclaimer

   EN    FR    IT 

 










Légende :    VFR   VFR Marginal   IFR   IFR Intensif   IFR Très Intensif
Visi : 
Plafond : 
>= 8 km
>= 3000ft
5 à 8 km
1000 à 3000 ft
1500m à 5 km
500 à 1000 ft
800 à 1500m
200 à 500 ft
< 800m
< 200 ft
Symboles :   Orages  Brouillard  Fortes neiges  Fortes précipitations  Vent > 20 kt
SIGMETs :   Divers  Orages  Givrage  Turbulence  Onde Orograph.  Cendres Volcan.






- Altitude de l'aérodrome : 15 ft
- Code IATA : BHD


EGAC - George Best Belfast City

DERNIER METAR :
  • 030950Z AUTO 22013KT 9999 -RA BKN015/// OVC021/// 15/14 Q1004

METARs EXPIRÉS :
  • 030920Z AUTO 22012KT 9999 -RA BKN013/// OVC024/// 15/13 Q1004
  • 030850Z AUTO 21012KT 9999 OVC013/// 14/13 Q1004
  • 030820Z AUTO 21013KT 9999 -RA BKN013/// 14/13 Q1004
  • 030750Z AUTO 20012KT 8000 -RA BKN011/// OVC016/// 13/12 Q1004
  • 030720Z AUTO 21013KT 9999 -RA OVC011/// 13/12 Q1004 RERA
  • 030650Z AUTO 21014KT 4000 RA BKN012/// OVC020/// 13/12 Q1004

TAF TAF EGAC
Valide du 03 à 09h jusqu'au 03 à 18h UTC


030757Z 0309/0318 21012KT 9999 SCT012 BKN020
TEMPO 0309/0318 4000 RA RADZ BKN012
PROB40
TEMPO 0309/0318 BKN007
ATIS : +44 02890 935 124



MET'MAP, la Météo Aéronautique d'un coup d'oeil ! - Copyright ORBIFLY Décembre 2007 - Disclaimer

ORBIFLY MET'MAP TEAM :

Programmation & Développement : Alexandra Zaïnal
Sur une idée originale de : Baudouin d'Aumeries
Assistance à la programmation : Marc-Olivier Méhu
Soutien technique & logistique : Manuel Goepfert

Contact : metmap@orbifly.com




SOURCES & CREDITS :

   NOAA